In Rescue
 
Open Full Screen Window  High Contrast Mode
Wind Gusting 00 knots
09
February 25, 2021 4:06 PM CST
Weather Information
Wind Direction
  200 °
Wind Speed
  09 kt (10 mph)
Wind Gust
  00 kt (0 mph)
Altimeter
30.11 in
Visibility
10 SM
Temperature
02° C
36° F
Dewpoint
-02° C
28° F
Humidity
75%
1hr Rain Fall
00.00 in.
24hr Rain Fall
00.00 in.
Sky Condition
Clear
VFR

METAR KY63 252206Z AUTO 20009KT 10SM CLR 02/M02 A3011 RMK AO2 T00201020

FAA Disclaimer: The data displayed is for advisory purposes only and is not to be used for flight planning or operations.